EW9533 Weather Reports


Display with metric or nautical units.
time (UTC)temp
F
wind
direction
speed
MPH
gust
MPH
rain 1hr
in
rain 24hr
in
rain mn
in
humidity
%
barometer
mb
20240620160021 64 0.0 0.0 0.02 0.17 0.17 94 1023.9
20240620154525 64 0.0 1.0 0.02 0.17 0.17 94 1024.1
20240620153015 64 0.0 1.0 0.02 0.16 0.16 94 1024.3
20240620151518 63 0.0 1.0 0.03 0.16 0.16 94 1024.2
20240620150031 63 0.0 0.0 0.02 0.15 0.15 94 1023.9
20240620144512 63 0.0 2.0 0.03 0.15 0.15 94 1024.0
20240620143011 62 0.0 0.0 0.03 0.14 0.14 94 1023.9
20240620141532 62 0.0 0.0 0.03 0.13 0.13 93 1023.9
20240620140010 62 0.0 0.0 0.04 0.13 0.13 93 1024.0
20240620134517 62 0.0 0.0 0.04 0.12 0.12 93 1023.8
20240620133013 62 0.0 5.0 0.04 0.11 0.11 93 1023.9
20240620131512 62 0.0 1.0 0.03 0.10 0.10 93 1023.9
20240620130005 62 0.0 0.0 0.04 0.09 0.09 93 1023.8
20240620124507 62 0.0 1.0 0.04 0.08 0.08 92 1023.8
20240620123005 63 0.0 4.0 0.04 0.07 0.07 93 1023.7
20240620121501 63 0.0 1.0 0.05 0.07 0.07 92 1023.7
20240620120100 63 0.0 1.0 0.04 0.06 0.06 92 1023.5
20240620114556 64 0.0 0.0 0.02 0.04 0.04 92 1023.5
20240620113053 65 0.0 3.0 0.02 0.03 0.03 92 1023.3
20240620111549 66 0.0 5.0 0.02 0.02 0.02 92 1022.8
20240620110102 68 0.0 3.0 0.02 0.02 0.02 93 1022.5
20240620104545 68 0.0 1.0 0.02 0.02 0.02 92 1022.4
20240620103047 68 0.0 0.0 0.01 0.01 0.01 92 1022.4
20240620101543 68 0.0 1.0 0.00 0.00 0.00 92 1022.2
20240620100039 69 0.0 0.0 0.00 0.00 0.00 92 1022.0
20240620094546 69 0.0 3.0 0.00 0.00 0.00 92 1021.9
20240620093036 69 0.0 2.0 0.00 0.00 0.00 91 1021.8
20240620091536 70 0.0 0.0 0.00 0.00 0.00 92 1021.8
20240620090041 70 0.0 0.0 0.00 0.00 0.00 91 1021.8
20240620084534 70 0.0 0.0 0.00 0.00 0.00 91 1021.6
20240620083034 70 0.0 0.0 0.00 0.00 0.00 91 1021.6
20240620081534 70 0.0 1.0 0.00 0.00 0.00 91 1021.5
20240620080030 70 0.0 0.0 0.00 0.00 0.00 91 1021.5
20240620074529 70 0.0 0.0 0.00 0.00 0.00 91 1021.4
20240620073029 70 0.0 0.0 0.00 0.00 0.00 91 1021.5
20240620071527 71 0.0 0.0 0.00 0.00 0.00 91 1021.4
20240620070028 71 0.0 0.0 0.00 0.00 0.00 91 1021.3
20240620064537 71 0.0 0.0 0.00 0.00 0.00 91 1021.4
20240620063026 72 0.0 0.0 0.00 0.00 0.00 91 1021.5
20240620061521 72 0.0 0.0 0.00 0.00 0.00 91 1021.5
20240620060023 72 0.0 1.0 0.00 0.00 0.00 91 1021.3
20240620054521 72 0.0 0.0 0.00 0.00 0.00 90 1021.3
20240620053022 72 0.0 0.0 0.00 0.00 0.00 90 1021.2
20240620051527 72 0.0 0.0 0.00 0.00 0.00 90 1021.4
20240620050014 72 0.0 0.0 0.00 0.00 0.00 90 1021.4
20240620044512 72 0.0 0.0 0.00 0.00 0.00 89 1021.3
20240620043012 72 0.0 0.0 0.00 0.00 0.00 88 1021.2
20240620041510 72 0.0 0.0 0.00 0.00 0.00 87 1021.3
20240620040010 73 0.0 0.0 0.00 0.00 0.00 86 1021.3
20240620034509 73 0.0 0.0 0.00 0.00 0.00 86 1021.2
20240620033016 73 0.0 0.0 0.00 0.00 0.00 85 1021.0
20240620031505 73 0.0 0.0 0.00 0.00 0.00 85 1021.0
20240620030003 74 0.0 0.0 0.00 0.00 0.00 84 1020.9
20240620024601 74 0.0 0.0 0.00 0.00 0.00 83 1020.9
20240620023059 74 0.0 0.0 0.00 0.00 0.00 83 1020.8
20240620021557 75 0.0 0.0 0.00 0.00 0.00 82 1020.7
20240620020055 75 0.0 0.0 0.00 0.00 0.00 81 1020.3
20240620014553 76 0.0 0.0 0.00 0.00 0.00 80 1020.0
20240620013051 76 0.0 0.0 0.00 0.00 0.00 79 1019.8
20240620011549 77 0.0 0.0 0.00 0.00 0.00 79 1019.6
20240620010049 77 0.0 0.0 0.00 0.00 0.00 78 1019.4
20240620004548 77 0.0 0.0 0.00 0.00 0.00 77 1019.5
20240620003053 77 0.0 0.0 0.00 0.00 0.00 77 1019.5
20240620001553 78 0.0 0.0 0.00 0.00 0.00 76 1019.5
20240620000046 78 0.0 5.0 0.00 0.00 0.00 75 1019.4
20240619234544 79 0.0 4.0 0.00 0.00 0.00 74 1019.4
20240619233044 79 0.0 5.0 0.00 0.00 0.00 73 1019.2
20240619231542 80 0.0 0.0 0.00 0.00 0.00 72 1019.0
20240619230054 81 0.0 1.0 0.00 0.00 0.00 70 1018.7
20240619224600 83 0.0 9.0 0.00 0.00 0.00 67 1018.4
20240619223038 86 0.0 9.0 0.00 0.00 0.00 63 1018.6
20240619221602 88 0.0 5.0 0.00 0.00 0.00 60 1018.4
20240619220036 89 0.0 4.0 0.00 0.00 0.00 60 1018.2
20240619214537 88 0.0 5.0 0.00 0.00 0.00 59 1018.1
20240619213050 89 0.0 8.0 0.00 0.00 0.00 57 1018.1
20240619211534 89 0.0 5.0 0.00 0.00 0.00 58 1018.0
20240619210034 89 0.0 6.0 0.00 0.00 0.00 57 1017.8
20240619204533 89 0.0 5.0 0.00 0.00 0.00 57 1017.9
20240619203032 89 0.0 6.0 0.00 0.00 0.00 59 1018.0
20240619201541 89 0.0 6.0 0.00 0.00 0.00 60 1018.0
20240619200032 89 0.0 6.0 0.00 0.00 0.00 57 1018.1
20240619194554 89 0.0 8.0 0.00 0.00 0.00 59 1018.3
20240619193029 89 0.0 5.0 0.00 0.00 0.00 59 1018.4
20240619191529 89 0.0 5.0 0.00 0.00 0.00 63 1018.4
20240619190027 88 0.0 6.0 0.00 0.00 0.00 61 1018.5
20240619184531 87 0.0 8.0 0.00 0.00 0.00 60 1018.5
20240619183028 88 0.0 9.0 0.00 0.00 0.00 58 1018.4
20240619181523 88 0.0 10.0 0.00 0.00 0.00 60 1018.3
20240619180021 88 0.0 5.0 0.00 0.00 0.00 62 1018.3
20240619174519 87 0.0 6.0 0.00 0.00 0.00 62 1018.3
20240619173017 87 0.0 10.0 0.00 0.00 0.00 62 1018.1
20240619171518 87 0.0 8.0 0.00 0.00 0.00 66 1018.0
20240619170012 86 0.0 8.0 0.00 0.00 0.00 66 1017.9
20240619164509 86 0.0 8.0 0.00 0.00 0.00 68 1017.9
20240619163015 85 0.0 6.0 0.00 0.00 0.00 70 1017.8
20240619161505 84 0.0 8.0 0.00 0.00 0.00 70 1017.8